Impacts TAF Board
For situational awareness. Not to be used for flight planning purposes.
IDs:

KBOS - Boston/Logan Intl, MA, US

Issued at 1746 UTC 17 Nov 2019
Updated at 1959 UTC 17 Nov 2019
Potential Impact None Slight Moderate High
Time<<18/08Z 18/09Z 18/10Z 18/11Z 18/12Z 18/13Z 18/14Z 18/15Z 18/16Z 18/17Z 18/18Z 18/19Z 18/20Z>>
Type PRVL PRVL PRVL PRVL PRVL PRVL PRVL PRVL PRVL PRVL PRVL PRVL PRVL
VIS >6 3 3 3 3 3 3 3 3 2 2 2 2
CIG 15 15 15 15 15 15 15 15 15 8 8 8 8
Cover OVC OVC OVC OVC OVC OVC OVC OVC OVC OVC OVC OVC OVC
FltCat MVFR MVFR MVFR MVFR MVFR MVFR MVFR MVFR MVFR IFR IFR IFR IFR
WX VCSH -RA BR -RA BR -RA BR -RA BR -RA BR -RA BR -RA BR -RA BR -RA BR -RA BR -RA BR -RA BR
WDir 50 30 30 30 30 30 30 30 30 10 10 10 10
WSpd 12 13 13 13 13 13 13 13 13 17 17 17 17
WGst 23 25 25 25 25 25 25 25 25 32 32 32 32
Raw TAF
KBOS 171746Z 1718/1824 01012KT P6SM VCSH SCT030 OVC035
  FM172000 07014G22KT P6SM VCSH OVC030
  FM180300 06012G22KT P6SM VCSH OVC020
  FM180400 05012G23KT P6SM VCSH OVC015
  FM180900 03013G25KT 3SM -RA BR OVC015
  FM181700 01017G32KT 2SM -RA BR OVC008


METAR Board
Radar Display
Forecast Discussion
For situational awareness. Not to be used for flight planning purposes.